sensor_id;sensor_type;location;lat;lon;timestamp;pressure;altitude;pressure_sealevel;temperature;humidity
46944;BME280;32678;43.852;25.952;2023-03-30T00:02:29;101952.38;;;4.71;39.44
46944;BME280;32678;43.852;25.952;2023-03-30T00:07:29;101953.97;;;4.57;41.09
46944;BME280;32678;43.852;25.952;2023-03-30T00:12:26;101949.09;;;4.91;40.95
46944;BME280;32678;43.852;25.952;2023-03-30T00:17:27;101941.59;;;5.24;40.06
46944;BME280;32678;43.852;25.952;2023-03-30T00:22:26;101940.81;;;5.39;39.97
46944;BME280;32678;43.852;25.952;2023-03-30T00:27:26;101939.09;;;5.36;40.22
46944;BME280;32678;43.852;25.952;2023-03-30T00:32:24;101948.69;;;5.49;40.22
46944;BME280;32678;43.852;25.952;2023-03-30T00:37:22;101953.88;;;4.48;41.89
46944;BME280;32678;43.852;25.952;2023-03-30T00:42:21;101952.41;;;3.99;43.45
46944;BME280;32678;43.852;25.952;2023-03-30T00:47:18;101946.72;;;4.30;41.78
46944;BME280;32678;43.852;25.952;2023-03-30T00:52:16;101943.75;;;4.72;41.30
46944;BME280;32678;43.852;25.952;2023-03-30T00:57:14;101943.13;;;4.18;42.02
46944;BME280;32678;43.852;25.952;2023-03-30T01:02:14;101940.63;;;4.24;42.25
46944;BME280;32678;43.852;25.952;2023-03-30T01:07:10;101941.66;;;4.41;41.76
46944;BME280;32678;43.852;25.952;2023-03-30T01:12:09;101943.50;;;4.51;40.59
46944;BME280;32678;43.852;25.952;2023-03-30T01:17:08;101934.97;;;4.64;40.27
46944;BME280;32678;43.852;25.952;2023-03-30T01:22:16;101938.72;;;4.92;39.61
46944;BME280;32678;43.852;25.952;2023-03-30T01:27:34;101935.44;;;5.13;40.17
46944;BME280;32678;43.852;25.952;2023-03-30T01:32:51;101946.88;;;4.40;42.33
46944;BME280;32678;43.852;25.952;2023-03-30T01:38:00;101951.19;;;4.42;42.03
46944;BME280;32678;43.852;25.952;2023-03-30T01:43:05;101953.72;;;3.68;40.67
46944;BME280;32678;43.852;25.952;2023-03-30T01:48:12;101951.94;;;3.10;41.21
46944;BME280;32678;43.852;25.952;2023-03-30T01:53:11;101957.72;;;2.92;41.76
46944;BME280;32678;43.852;25.952;2023-03-30T01:58:12;101961.59;;;2.69;42.37
46944;BME280;32678;43.852;25.952;2023-03-30T02:03:12;101965.72;;;2.59;42.63
46944;BME280;32678;43.852;25.952;2023-03-30T02:08:10;101963.50;;;2.78;42.61
46944;BME280;32678;43.852;25.952;2023-03-30T02:13:08;101975.13;;;2.54;43.02
46944;BME280;32678;43.852;25.952;2023-03-30T02:18:09;101976.94;;;2.60;42.75
46944;BME280;32678;43.852;25.952;2023-03-30T02:23:06;101977.09;;;2.23;43.49
46944;BME280;32678;43.852;25.952;2023-03-30T02:28:03;101970.59;;;2.43;42.60
46944;BME280;32678;43.852;25.952;2023-03-30T02:33:03;101982.22;;;2.63;42.13
46944;BME280;32678;43.852;25.952;2023-03-30T02:43:37;101992.47;;;2.60;41.92
46944;BME280;32678;43.852;25.952;2023-03-30T02:48:41;101997.34;;;2.43;42.27
46944;BME280;32678;43.852;25.952;2023-03-30T02:53:41;101999.34;;;2.56;41.96
46944;BME280;32678;43.852;25.952;2023-03-30T02:58:50;101998.97;;;2.40;42.32
46944;BME280;32678;43.852;25.952;2023-03-30T03:03:50;102003.72;;;2.60;42.11
46944;BME280;32678;43.852;25.952;2023-03-30T03:08:52;102004.06;;;2.79;41.48
46944;BME280;32678;43.852;25.952;2023-03-30T03:13:54;102014.06;;;2.59;41.88
46944;BME280;32678;43.852;25.952;2023-03-30T03:18:55;102016.75;;;2.65;41.78
46944;BME280;32678;43.852;25.952;2023-03-30T03:23:53;102016.88;;;2.71;42.28
46944;BME280;32678;43.852;25.952;2023-03-30T03:29:05;102012.00;;;2.43;42.25
46944;BME280;32678;43.852;25.952;2023-03-30T03:34:02;102025.53;;;2.30;42.99
46944;BME280;32678;43.852;25.952;2023-03-30T03:39:24;102019.63;;;1.95;44.31
46944;BME280;32678;43.852;25.952;2023-03-30T03:44:29;102024.09;;;2.03;44.27
46944;BME280;32678;43.852;25.952;2023-03-30T03:49:26;102023.28;;;2.06;43.87
46944;BME280;32678;43.852;25.952;2023-03-30T03:54:23;102034.34;;;1.99;44.26
46944;BME280;32678;43.852;25.952;2023-03-30T03:59:20;102038.59;;;1.95;44.18
46944;BME280;32678;43.852;25.952;2023-03-30T04:04:21;102041.38;;;2.04;44.35
46944;BME280;32678;43.852;25.952;2023-03-30T04:09:18;102043.97;;;2.45;43.55
46944;BME280;32678;43.852;25.952;2023-03-30T04:14:37;102050.19;;;2.54;43.06
46944;BME280;32678;43.852;25.952;2023-03-30T04:19:46;102058.47;;;2.80;42.85
46944;BME280;32678;43.852;25.952;2023-03-30T04:25:11;102041.56;;;2.97;41.70
46944;BME280;32678;43.852;25.952;2023-03-30T04:30:31;102076.38;;;3.12;41.38
46944;BME280;32678;43.852;25.952;2023-03-30T04:36:02;102080.47;;;4.03;41.52
46944;BME280;32678;43.852;25.952;2023-03-30T04:41:26;102093.53;;;4.69;40.70
46944;BME280;32678;43.852;25.952;2023-03-30T04:46:39;102102.78;;;5.22;42.22
46944;BME280;32678;43.852;25.952;2023-03-30T04:51:55;102109.22;;;5.62;43.80
46944;BME280;32678;43.852;25.952;2023-03-30T04:57:11;102104.47;;;5.19;41.82
46944;BME280;32678;43.852;25.952;2023-03-30T05:02:12;102102.81;;;4.52;40.85
46944;BME280;32678;43.852;25.952;2023-03-30T05:07:30;102116.50;;;3.83;39.73
46944;BME280;32678;43.852;25.952;2023-03-30T05:12:54;102120.81;;;3.33;40.31
46944;BME280;32678;43.852;25.952;2023-03-30T05:18:21;102117.69;;;2.62;41.94
46944;BME280;32678;43.852;25.952;2023-03-30T05:23:37;102107.47;;;2.70;42.06
46944;BME280;32678;43.852;25.952;2023-03-30T05:28:53;102108.44;;;2.75;41.73
46944;BME280;32678;43.852;25.952;2023-03-30T05:34:10;102115.38;;;3.19;41.31
46944;BME280;32678;43.852;25.952;2023-03-30T05:39:24;102113.28;;;3.48;41.10
46944;BME280;32678;43.852;25.952;2023-03-30T05:44:39;102125.38;;;3.47;41.68
46944;BME280;32678;43.852;25.952;2023-03-30T05:50:02;102129.38;;;3.78;41.44
46944;BME280;32678;43.852;25.952;2023-03-30T05:55:21;102121.66;;;3.32;42.71
46944;BME280;32678;43.852;25.952;2023-03-30T06:00:48;102122.75;;;3.44;43.13
46944;BME280;32678;43.852;25.952;2023-03-30T06:05:57;102128.31;;;3.66;43.54
46944;BME280;32678;43.852;25.952;2023-03-30T06:11:00;102123.34;;;3.79;44.21
46944;BME280;32678;43.852;25.952;2023-03-30T06:16:11;102134.31;;;4.16;44.41
46944;BME280;32678;43.852;25.952;2023-03-30T06:21:10;102139.72;;;4.31;45.02
46944;BME280;32678;43.852;25.952;2023-03-30T06:26:25;102148.78;;;4.02;46.91
46944;BME280;32678;43.852;25.952;2023-03-30T06:31:27;102150.78;;;4.18;47.13
46944;BME280;32678;43.852;25.952;2023-03-30T06:36:49;102148.53;;;4.39;46.68
46944;BME280;32678;43.852;25.952;2023-03-30T06:41:54;102147.44;;;4.26;46.84
46944;BME280;32678;43.852;25.952;2023-03-30T06:47:14;102163.97;;;4.31;46.64
46944;BME280;32678;43.852;25.952;2023-03-30T06:52:17;102158.41;;;4.66;45.98
46944;BME280;32678;43.852;25.952;2023-03-30T06:57:18;102162.34;;;5.01;45.74
46944;BME280;32678;43.852;25.952;2023-03-30T07:02:20;102154.59;;;5.06;46.23
46944;BME280;32678;43.852;25.952;2023-03-30T07:07:23;102167.84;;;5.29;45.45
46944;BME280;32678;43.852;25.952;2023-03-30T07:12:21;102161.22;;;5.56;45.12
46944;BME280;32678;43.852;25.952;2023-03-30T07:17:21;102167.31;;;5.60;45.51
46944;BME280;32678;43.852;25.952;2023-03-30T07:22:36;102128.47;;;5.83;44.51
46944;BME280;32678;43.852;25.952;2023-03-30T07:27:41;102151.13;;;5.91;44.51
46944;BME280;32678;43.852;25.952;2023-03-30T07:32:49;102127.84;;;6.08;44.09
46944;BME280;32678;43.852;25.952;2023-03-30T07:37:48;102145.50;;;6.48;43.62
46944;BME280;32678;43.852;25.952;2023-03-30T07:42:59;102124.41;;;6.11;44.58
46944;BME280;32678;43.852;25.952;2023-03-30T07:48:06;102140.34;;;6.62;44.25
46944;BME280;32678;43.852;25.952;2023-03-30T07:53:13;102146.47;;;6.72;44.07
46944;BME280;32678;43.852;25.952;2023-03-30T07:58:15;102140.56;;;7.03;41.73
46944;BME280;32678;43.852;25.952;2023-03-30T08:03:13;102140.56;;;7.12;42.63
46944;BME280;32678;43.852;25.952;2023-03-30T08:08:13;102129.38;;;7.56;41.19
46944;BME280;32678;43.852;25.952;2023-03-30T08:13:21;102126.75;;;7.59;40.49
46944;BME280;32678;43.852;25.952;2023-03-30T08:18:34;102125.00;;;7.93;37.77
46944;BME280;32678;43.852;25.952;2023-03-30T08:23:34;102118.91;;;7.92;35.94
46944;BME280;32678;43.852;25.952;2023-03-30T08:28:40;102118.00;;;8.26;34.79
46944;BME280;32678;43.852;25.952;2023-03-30T08:33:45;102114.56;;;8.12;33.85
46944;BME280;32678;43.852;25.952;2023-03-30T08:38:43;102119.72;;;8.56;31.87
46944;BME280;32678;43.852;25.952;2023-03-30T08:43:51;102103.03;;;8.91;29.17
46944;BME280;32678;43.852;25.952;2023-03-30T08:49:00;102088.13;;;9.06;26.99
46944;BME280;32678;43.852;25.952;2023-03-30T08:54:15;102091.69;;;8.92;26.85
46944;BME280;32678;43.852;25.952;2023-03-30T08:59:19;102081.03;;;9.25;28.79
46944;BME280;32678;43.852;25.952;2023-03-30T09:04:24;102067.81;;;9.46;27.91
46944;BME280;32678;43.852;25.952;2023-03-30T09:09:42;102070.53;;;9.33;28.46
46944;BME280;32678;43.852;25.952;2023-03-30T09:14:57;102057.22;;;9.58;27.22
46944;BME280;32678;43.852;25.952;2023-03-30T09:19:59;102051.31;;;9.34;26.20
46944;BME280;32678;43.852;25.952;2023-03-30T09:25:22;102038.19;;;9.43;26.63
46944;BME280;32678;43.852;25.952;2023-03-30T09:30:31;102032.47;;;9.94;25.26
46944;BME280;32678;43.852;25.952;2023-03-30T09:35:33;102012.59;;;9.72;24.96
46944;BME280;32678;43.852;25.952;2023-03-30T09:40:37;102023.00;;;9.81;24.23
46944;BME280;32678;43.852;25.952;2023-03-30T09:45:37;102008.09;;;9.86;24.51
46944;BME280;32678;43.852;25.952;2023-03-30T09:50:38;102008.72;;;10.08;25.11
46944;BME280;32678;43.852;25.952;2023-03-30T09:55:59;102000.91;;;10.02;24.86
46944;BME280;32678;43.852;25.952;2023-03-30T10:01:01;102000.78;;;10.19;24.53
46944;BME280;32678;43.852;25.952;2023-03-30T10:06:00;101987.69;;;10.19;24.59
46944;BME280;32678;43.852;25.952;2023-03-30T10:10:58;101986.81;;;10.18;25.29
46944;BME280;32678;43.852;25.952;2023-03-30T10:16:10;101974.06;;;10.58;24.64
46944;BME280;32678;43.852;25.952;2023-03-30T10:21:16;101969.38;;;10.80;23.83
46944;BME280;32678;43.852;25.952;2023-03-30T10:26:14;101960.47;;;10.92;23.57
46944;BME280;32678;43.852;25.952;2023-03-30T10:31:31;101962.41;;;10.77;23.74
46944;BME280;32678;43.852;25.952;2023-03-30T10:36:36;101955.91;;;11.04;24.89
46944;BME280;32678;43.852;25.952;2023-03-30T10:41:49;101941.69;;;11.16;24.28
46944;BME280;32678;43.852;25.952;2023-03-30T10:47:05;101930.78;;;10.88;24.45
46944;BME280;32678;43.852;25.952;2023-03-30T10:52:10;101922.41;;;11.18;25.21
46944;BME280;32678;43.852;25.952;2023-03-30T10:57:14;101912.63;;;11.28;24.82
46944;BME280;32678;43.852;25.952;2023-03-30T11:07:34;101884.69;;;11.70;24.85
46944;BME280;32678;43.852;25.952;2023-03-30T11:12:35;101880.94;;;11.83;25.52
46944;BME280;32678;43.852;25.952;2023-03-30T11:17:39;101861.69;;;11.37;24.68
46944;BME280;32678;43.852;25.952;2023-03-30T11:22:42;101855.03;;;11.63;24.43
46944;BME280;32678;43.852;25.952;2023-03-30T11:27:50;101848.81;;;11.69;23.90
46944;BME280;32678;43.852;25.952;2023-03-30T11:32:54;101839.53;;;11.96;24.29
46944;BME280;32678;43.852;25.952;2023-03-30T11:38:06;101838.78;;;11.89;24.16
46944;BME280;32678;43.852;25.952;2023-03-30T11:43:21;101808.84;;;11.96;23.69
46944;BME280;32678;43.852;25.952;2023-03-30T11:48:25;101803.28;;;12.10;23.04
46944;BME280;32678;43.852;25.952;2023-03-30T11:53:40;101812.91;;;12.11;23.63
46944;BME280;32678;43.852;25.952;2023-03-30T11:58:52;101807.34;;;12.25;23.72
46944;BME280;32678;43.852;25.952;2023-03-30T12:03:58;101783.06;;;12.50;22.54
46944;BME280;32678;43.852;25.952;2023-03-30T12:09:09;101789.81;;;12.61;23.42
46944;BME280;32678;43.852;25.952;2023-03-30T12:14:13;101771.44;;;12.59;23.36
46944;BME280;32678;43.852;25.952;2023-03-30T12:19:18;101771.25;;;12.99;21.48
46944;BME280;32678;43.852;25.952;2023-03-30T12:24:21;101762.06;;;12.81;21.67
46944;BME280;32678;43.852;25.952;2023-03-30T12:29:21;101758.63;;;12.79;21.78
46944;BME280;32678;43.852;25.952;2023-03-30T12:34:41;101756.03;;;13.12;22.05
46944;BME280;32678;43.852;25.952;2023-03-30T12:39:43;101744.31;;;12.89;22.83
46944;BME280;32678;43.852;25.952;2023-03-30T12:44:48;101750.63;;;13.16;22.58
46944;BME280;32678;43.852;25.952;2023-03-30T12:50:00;101741.44;;;13.31;21.51
46944;BME280;32678;43.852;25.952;2023-03-30T12:55:16;101735.22;;;13.01;22.26
46944;BME280;32678;43.852;25.952;2023-03-30T13:05:32;101713.91;;;13.12;21.05
46944;BME280;32678;43.852;25.952;2023-03-30T13:10:41;101696.53;;;13.35;20.67
46944;BME280;32678;43.852;25.952;2023-03-30T13:15:41;101687.81;;;13.33;21.84
46944;BME280;32678;43.852;25.952;2023-03-30T13:26:21;101671.91;;;13.06;22.28
46944;BME280;32678;43.852;25.952;2023-03-30T13:31:40;101647.34;;;13.05;22.62
46944;BME280;32678;43.852;25.952;2023-03-30T13:36:43;101669.75;;;13.20;21.88
46944;BME280;32678;43.852;25.952;2023-03-30T13:41:46;101660.94;;;13.50;22.52
46944;BME280;32678;43.852;25.952;2023-03-30T13:46:45;101650.44;;;13.21;21.58
46944;BME280;32678;43.852;25.952;2023-03-30T13:51:45;101652.31;;;13.45;22.39
46944;BME280;32678;43.852;25.952;2023-03-30T13:56:54;101644.84;;;13.31;22.71
46944;BME280;32678;43.852;25.952;2023-03-30T14:01:55;101642.13;;;13.62;21.81
46944;BME280;32678;43.852;25.952;2023-03-30T14:06:52;101643.56;;;13.44;21.02
46944;BME280;32678;43.852;25.952;2023-03-30T14:11:55;101637.38;;;13.45;21.92
46944;BME280;32678;43.852;25.952;2023-03-30T14:16:53;101633.69;;;13.51;20.53
46944;BME280;32678;43.852;25.952;2023-03-30T14:21:52;101629.28;;;13.52;20.84
46944;BME280;32678;43.852;25.952;2023-03-30T14:26:59;101624.97;;;13.49;21.80
46944;BME280;32678;43.852;25.952;2023-03-30T14:31:59;101614.88;;;13.89;20.67
46944;BME280;32678;43.852;25.952;2023-03-30T14:37:05;101615.91;;;13.85;19.72
46944;BME280;32678;43.852;25.952;2023-03-30T14:42:14;101611.09;;;13.72;20.54
46944;BME280;32678;43.852;25.952;2023-03-30T14:47:12;101609.94;;;13.53;19.88
46944;BME280;32678;43.852;25.952;2023-03-30T14:52:14;101601.78;;;13.60;20.07
46944;BME280;32678;43.852;25.952;2023-03-30T14:57:13;101600.47;;;13.73;19.18
46944;BME280;32678;43.852;25.952;2023-03-30T15:02:16;101588.66;;;13.59;19.50
46944;BME280;32678;43.852;25.952;2023-03-30T15:07:15;101585.75;;;13.68;18.68
46944;BME280;32678;43.852;25.952;2023-03-30T15:12:16;101580.97;;;13.79;19.26
46944;BME280;32678;43.852;25.952;2023-03-30T15:17:17;101575.28;;;13.65;19.91
46944;BME280;32678;43.852;25.952;2023-03-30T15:22:18;101579.53;;;13.69;20.29
46944;BME280;32678;43.852;25.952;2023-03-30T15:27:19;101563.72;;;13.69;20.64
46944;BME280;32678;43.852;25.952;2023-03-30T15:32:18;101555.44;;;13.81;20.17
46944;BME280;32678;43.852;25.952;2023-03-30T15:37:19;101559.22;;;16.24;19.32
46944;BME280;32678;43.852;25.952;2023-03-30T15:42:25;101558.31;;;15.41;19.16
46944;BME280;32678;43.852;25.952;2023-03-30T15:47:24;101549.59;;;14.47;20.54
46944;BME280;32678;43.852;25.952;2023-03-30T15:52:21;101553.91;;;14.25;20.41
46944;BME280;32678;43.852;25.952;2023-03-30T15:57:19;101538.59;;;13.85;21.04
46944;BME280;32678;43.852;25.952;2023-03-30T16:02:18;101536.13;;;13.80;21.39
46944;BME280;32678;43.852;25.952;2023-03-30T16:07:15;101529.19;;;13.78;22.25
46944;BME280;32678;43.852;25.952;2023-03-30T16:12:17;101521.56;;;13.69;21.93
46944;BME280;32678;43.852;25.952;2023-03-30T16:17:14;101519.88;;;13.68;21.86
46944;BME280;32678;43.852;25.952;2023-03-30T16:22:12;101528.91;;;13.59;21.79
46944;BME280;32678;43.852;25.952;2023-03-30T16:27:12;101529.91;;;13.57;22.28
46944;BME280;32678;43.852;25.952;2023-03-30T16:32:09;101515.69;;;13.61;22.52
46944;BME280;32678;43.852;25.952;2023-03-30T16:37:07;101523.72;;;13.58;22.13
46944;BME280;32678;43.852;25.952;2023-03-30T16:42:24;101508.06;;;13.53;22.63
46944;BME280;32678;43.852;25.952;2023-03-30T16:47:51;101512.66;;;13.47;22.87
46944;BME280;32678;43.852;25.952;2023-03-30T16:53:00;101505.84;;;13.39;22.61
46944;BME280;32678;43.852;25.952;2023-03-30T16:57:58;101499.88;;;13.34;22.42
46944;BME280;32678;43.852;25.952;2023-03-30T17:03:02;101506.16;;;13.30;22.77
46944;BME280;32678;43.852;25.952;2023-03-30T17:08:05;101506.34;;;13.24;22.78
46944;BME280;32678;43.852;25.952;2023-03-30T17:13:27;101499.38;;;13.23;22.91
46944;BME280;32678;43.852;25.952;2023-03-30T17:23:44;101507.75;;;13.08;23.57
46944;BME280;32678;43.852;25.952;2023-03-30T17:28:44;101502.06;;;12.92;23.36
46944;BME280;32678;43.852;25.952;2023-03-30T17:33:45;101497.72;;;12.91;23.48
46944;BME280;32678;43.852;25.952;2023-03-30T17:38:47;101495.09;;;12.91;23.83
46944;BME280;32678;43.852;25.952;2023-03-30T17:43:46;101483.91;;;12.85;23.96
46944;BME280;32678;43.852;25.952;2023-03-30T17:48:51;101490.34;;;12.75;23.98
46944;BME280;32678;43.852;25.952;2023-03-30T17:53:48;101471.00;;;12.46;24.32
46944;BME280;32678;43.852;25.952;2023-03-30T17:58:52;101479.63;;;12.51;24.29
46944;BME280;32678;43.852;25.952;2023-03-30T18:03:53;101473.63;;;12.46;24.79
46944;BME280;32678;43.852;25.952;2023-03-30T18:08:50;101478.44;;;12.62;25.15
46944;BME280;32678;43.852;25.952;2023-03-30T18:13:47;101461.22;;;12.51;25.64
46944;BME280;32678;43.852;25.952;2023-03-30T18:18:45;101476.38;;;12.43;25.20
46944;BME280;32678;43.852;25.952;2023-03-30T18:23:42;101471.72;;;12.53;25.76
46944;BME280;32678;43.852;25.952;2023-03-30T18:28:39;101472.13;;;12.69;26.29
46944;BME280;32678;43.852;25.952;2023-03-30T18:33:38;101474.78;;;12.67;25.61
46944;BME280;32678;43.852;25.952;2023-03-30T18:38:38;101466.69;;;12.14;26.00
46944;BME280;32678;43.852;25.952;2023-03-30T18:43:40;101470.81;;;12.23;25.20
46944;BME280;32678;43.852;25.952;2023-03-30T18:48:52;101463.06;;;12.19;26.29
46944;BME280;32678;43.852;25.952;2023-03-30T18:53:49;101462.00;;;12.26;27.87
46944;BME280;32678;43.852;25.952;2023-03-30T18:58:49;101472.72;;;12.49;30.09
46944;BME280;32678;43.852;25.952;2023-03-30T19:03:46;101453.97;;;12.30;30.93
46944;BME280;32678;43.852;25.952;2023-03-30T19:08:47;101451.28;;;12.32;32.11
46944;BME280;32678;43.852;25.952;2023-03-30T19:13:45;101463.78;;;12.54;33.31
46944;BME280;32678;43.852;25.952;2023-03-30T19:18:49;101457.69;;;12.52;30.35
46944;BME280;32678;43.852;25.952;2023-03-30T19:23:51;101455.00;;;12.55;31.79
46944;BME280;32678;43.852;25.952;2023-03-30T19:28:51;101432.44;;;12.47;32.56
46944;BME280;32678;43.852;25.952;2023-03-30T19:33:48;101439.28;;;12.52;32.33
46944;BME280;32678;43.852;25.952;2023-03-30T19:39:00;101421.72;;;12.53;31.07
46944;BME280;32678;43.852;25.952;2023-03-30T19:44:13;101415.28;;;12.63;30.62
46944;BME280;32678;43.852;25.952;2023-03-30T19:49:16;101406.47;;;12.64;30.50
46944;BME280;32678;43.852;25.952;2023-03-30T19:54:15;101400.25;;;12.39;31.17
46944;BME280;32678;43.852;25.952;2023-03-30T19:59:14;101388.41;;;11.95;31.12
46944;BME280;32678;43.852;25.952;2023-03-30T20:04:18;101383.56;;;12.10;31.50
46944;BME280;32678;43.852;25.952;2023-03-30T20:09:24;101377.81;;;12.27;31.34
46944;BME280;32678;43.852;25.952;2023-03-30T20:14:27;101374.84;;;12.38;30.96
46944;BME280;32678;43.852;25.952;2023-03-30T20:19:24;101373.81;;;12.43;30.12
46944;BME280;32678;43.852;25.952;2023-03-30T20:24:25;101372.69;;;12.23;29.28
46944;BME280;32678;43.852;25.952;2023-03-30T20:29:23;101365.22;;;12.09;29.63
46944;BME280;32678;43.852;25.952;2023-03-30T20:34:25;101352.59;;;12.22;30.04
46944;BME280;32678;43.852;25.952;2023-03-30T20:39:48;101349.47;;;12.37;30.10
46944;BME280;32678;43.852;25.952;2023-03-30T20:45:04;101341.25;;;12.47;25.09
46944;BME280;32678;43.852;25.952;2023-03-30T20:50:03;101341.44;;;11.83;25.66
46944;BME280;32678;43.852;25.952;2023-03-30T20:55:04;101350.00;;;11.91;29.01
46944;BME280;32678;43.852;25.952;2023-03-30T21:00:02;101338.66;;;11.89;31.39
46944;BME280;32678;43.852;25.952;2023-03-30T21:05:11;101341.09;;;11.32;32.04
46944;BME280;32678;43.852;25.952;2023-03-30T21:10:08;101329.28;;;11.48;32.12
46944;BME280;32678;43.852;25.952;2023-03-30T21:15:13;101321.91;;;11.62;32.35
46944;BME280;32678;43.852;25.952;2023-03-30T21:20:13;101320.88;;;11.67;32.89
46944;BME280;32678;43.852;25.952;2023-03-30T21:25:12;101324.06;;;11.79;32.88
46944;BME280;32678;43.852;25.952;2023-03-30T21:30:14;101325.75;;;11.81;33.30
46944;BME280;32678;43.852;25.952;2023-03-30T21:35:11;101314.06;;;11.91;35.17
46944;BME280;32678;43.852;25.952;2023-03-30T21:40:09;101294.66;;;11.95;34.87
46944;BME280;32678;43.852;25.952;2023-03-30T21:45:08;101285.34;;;12.13;34.21
46944;BME280;32678;43.852;25.952;2023-03-30T21:50:16;101260.84;;;12.12;33.72
46944;BME280;32678;43.852;25.952;2023-03-30T21:55:18;101272.75;;;12.24;33.45
46944;BME280;32678;43.852;25.952;2023-03-30T22:00:20;101262.91;;;12.31;33.15
46944;BME280;32678;43.852;25.952;2023-03-30T22:05:17;101267.63;;;12.20;33.91
46944;BME280;32678;43.852;25.952;2023-03-30T22:10:14;101257.97;;;12.20;34.54
46944;BME280;32678;43.852;25.952;2023-03-30T22:15:11;101270.31;;;12.18;36.70
46944;BME280;32678;43.852;25.952;2023-03-30T22:20:09;101264.09;;;12.21;38.16
46944;BME280;32678;43.852;25.952;2023-03-30T22:25:12;101267.75;;;12.17;38.34
46944;BME280;32678;43.852;25.952;2023-03-30T22:30:12;101253.00;;;12.11;37.95
46944;BME280;32678;43.852;25.952;2023-03-30T22:35:10;101258.16;;;11.86;38.93
46944;BME280;32678;43.852;25.952;2023-03-30T22:40:14;101242.00;;;11.09;41.63
46944;BME280;32678;43.852;25.952;2023-03-30T22:45:11;101239.53;;;11.03;41.44
46944;BME280;32678;43.852;25.952;2023-03-30T22:50:09;101224.22;;;10.86;39.05
46944;BME280;32678;43.852;25.952;2023-03-30T22:55:10;101218.63;;;11.30;37.70
46944;BME280;32678;43.852;25.952;2023-03-30T23:00:18;101198.78;;;11.20;36.26
46944;BME280;32678;43.852;25.952;2023-03-30T23:05:21;101188.72;;;11.05;36.15
46944;BME280;32678;43.852;25.952;2023-03-30T23:10:25;101183.31;;;11.11;36.46
46944;BME280;32678;43.852;25.952;2023-03-30T23:15:28;101184.84;;;10.88;35.54
46944;BME280;32678;43.852;25.952;2023-03-30T23:20:32;101170.50;;;10.70;35.29
46944;BME280;32678;43.852;25.952;2023-03-30T23:25:29;101165.94;;;11.07;35.18
46944;BME280;32678;43.852;25.952;2023-03-30T23:30:26;101148.88;;;11.22;34.64
46944;BME280;32678;43.852;25.952;2023-03-30T23:35:23;101134.66;;;10.69;34.65
46944;BME280;32678;43.852;25.952;2023-03-30T23:40:21;101130.72;;;10.53;29.61
46944;BME280;32678;43.852;25.952;2023-03-30T23:45:19;101131.72;;;10.13;31.02
46944;BME280;32678;43.852;25.952;2023-03-30T23:50:18;101132.44;;;9.84;32.48
46944;BME280;32678;43.852;25.952;2023-03-30T23:55:15;101122.38;;;10.03;30.61
